createdAt,value
2022-08-19T00:01:03.809Z,25.33
2022-08-19T00:03:34.180Z,25.34
2022-08-19T00:06:05.700Z,25.35
2022-08-19T00:08:38.453Z,25.34
2022-08-19T00:11:18.701Z,25.33
2022-08-19T00:13:57.673Z,25.34
2022-08-19T00:16:29.618Z,25.19
2022-08-19T00:19:00.222Z,25.23
2022-08-19T00:21:32.738Z,25.13
2022-08-19T00:24:03.209Z,25.05
2022-08-19T00:26:41.755Z,25.01
2022-08-19T00:29:13.903Z,25.08
2022-08-19T00:31:45.664Z,25.02
2022-08-19T00:34:17.053Z,24.99
2022-08-19T00:36:47.527Z,24.94
2022-08-19T00:39:19.670Z,24.85
2022-08-19T00:41:55.182Z,24.80
2022-08-19T00:44:29.402Z,24.84
2022-08-19T00:47:02.879Z,24.77
2022-08-19T00:49:38.829Z,24.82
2022-08-19T00:52:15.401Z,24.78
2022-08-19T00:54:53.058Z,24.73
2022-08-19T00:57:33.056Z,24.65
2022-08-19T01:00:06.311Z,24.58
2022-08-19T01:02:39.337Z,24.55
2022-08-19T01:05:17.414Z,24.54
2022-08-19T01:07:49.127Z,24.54
2022-08-19T01:10:23.840Z,24.48
2022-08-19T01:13:01.970Z,24.47
2022-08-19T01:15:40.038Z,24.38
2022-08-19T01:18:13.692Z,24.37
2022-08-19T01:20:45.471Z,24.30
2022-08-19T01:23:19.661Z,24.26
2022-08-19T01:25:53.332Z,24.19
2022-08-19T01:28:40.078Z,24.22
2022-08-19T01:31:27.178Z,24.17
2022-08-19T01:33:59.989Z,24.20
2022-08-19T01:36:37.526Z,24.13
2022-08-19T01:39:17.386Z,24.10
2022-08-19T01:41:47.716Z,24.02
2022-08-19T01:44:21.373Z,23.99
2022-08-19T01:46:52.731Z,24.00
2022-08-19T01:49:28.328Z,23.96
2022-08-19T01:51:59.989Z,23.99
2022-08-19T01:54:34.513Z,23.92
2022-08-19T01:57:09.633Z,23.87
2022-08-19T01:59:50.779Z,23.91
2022-08-19T02:02:21.121Z,23.83
2022-08-19T02:04:52.027Z,23.83
2022-08-19T02:07:25.230Z,23.75
2022-08-19T02:09:59.392Z,23.62
2022-08-19T02:12:48.013Z,23.51
2022-08-19T02:15:20.281Z,23.45
2022-08-19T02:17:52.435Z,23.30
2022-08-19T02:20:26.143Z,23.16
2022-08-19T02:22:57.433Z,23.01
2022-08-19T02:25:30.122Z,22.85
2022-08-19T02:28:02.307Z,22.72
2022-08-19T02:30:33.366Z,22.62
2022-08-19T02:33:03.589Z,22.57
2022-08-19T02:35:33.705Z,22.51
2022-08-19T02:38:16.539Z,22.42
2022-08-19T02:40:59.262Z,22.40
2022-08-19T02:43:33.955Z,22.30
2022-08-19T02:46:05.775Z,22.27
2022-08-19T02:48:44.722Z,22.38
2022-08-19T02:51:23.310Z,22.36
2022-08-19T02:53:55.373Z,22.41
2022-08-19T02:56:28.702Z,22.37
2022-08-19T02:58:59.819Z,22.23
2022-08-19T03:01:32.239Z,22.22
2022-08-19T03:04:07.999Z,22.19
2022-08-19T03:06:41.876Z,22.14
2022-08-19T03:09:13.872Z,22.03
2022-08-19T03:11:46.799Z,22.01
2022-08-19T03:14:19.232Z,22.02
2022-08-19T03:16:52.446Z,21.96
2022-08-19T03:19:24.461Z,21.89
2022-08-19T03:21:58.057Z,21.93
2022-08-19T03:24:29.603Z,21.88
2022-08-19T03:27:04.993Z,21.86
2022-08-19T03:29:43.332Z,21.80
2022-08-19T03:32:31.708Z,21.68
2022-08-19T03:35:03.657Z,21.66
2022-08-19T03:37:42.199Z,21.68
2022-08-19T03:40:16.386Z,21.64
2022-08-19T03:42:51.112Z,21.63
2022-08-19T03:45:22.508Z,21.59
2022-08-19T03:47:53.941Z,21.67
2022-08-19T03:50:27.564Z,21.62
2022-08-19T03:53:01.032Z,21.59
2022-08-19T03:55:30.778Z,21.57
2022-08-19T03:58:07.713Z,21.57
2022-08-19T04:00:38.088Z,21.50
2022-08-19T04:03:09.370Z,21.49
2022-08-19T04:05:40.059Z,21.47
2022-08-19T04:08:13.867Z,21.47
2022-08-19T04:10:45.149Z,21.47
2022-08-19T04:13:21.531Z,21.46
2022-08-19T04:15:52.305Z,21.55
2022-08-19T04:18:23.064Z,21.53
2022-08-19T04:20:54.102Z,21.50
2022-08-19T04:23:25.013Z,21.49
2022-08-19T04:25:59.197Z,21.55
2022-08-19T04:28:37.920Z,21.55
2022-08-19T04:31:09.215Z,21.60
2022-08-19T04:33:40.036Z,21.64
2022-08-19T04:36:12.254Z,21.67
2022-08-19T04:38:42.399Z,21.71
2022-08-19T04:41:24.826Z,21.79
2022-08-19T04:44:04.158Z,21.84
2022-08-19T04:46:40.335Z,21.81
2022-08-19T04:49:23.739Z,21.84
2022-08-19T04:51:59.986Z,21.90
2022-08-19T04:54:38.677Z,22.02
2022-08-19T04:57:12.189Z,22.04
2022-08-19T04:59:52.800Z,22.12
2022-08-19T05:02:26.327Z,22.14
2022-08-19T05:05:03.481Z,22.23
2022-08-19T05:07:34.090Z,22.35
2022-08-19T05:10:04.321Z,22.33
2022-08-19T05:12:38.344Z,22.38
2022-08-19T05:15:13.836Z,22.47
2022-08-19T05:18:06.441Z,22.51
2022-08-19T05:20:49.444Z,22.63
2022-08-19T05:23:22.742Z,22.69
2022-08-19T05:25:54.361Z,22.82
2022-08-19T05:28:27.525Z,22.90
2022-08-19T05:31:03.953Z,22.97
2022-08-19T05:33:35.603Z,23.01
2022-08-19T05:36:08.435Z,23.15
2022-08-19T05:38:41.731Z,23.25
2022-08-19T05:41:12.609Z,23.38
2022-08-19T05:43:42.960Z,23.53
2022-08-19T05:46:28.076Z,23.60
2022-08-19T05:49:02.628Z,23.67
2022-08-19T05:51:38.360Z,23.73
2022-08-19T05:54:09.903Z,23.88
2022-08-19T05:56:40.397Z,24.11
2022-08-19T05:59:13.083Z,24.14
2022-08-19T06:01:51.735Z,24.32
2022-08-19T06:04:27.708Z,24.55
2022-08-19T06:07:12.075Z,24.63
2022-08-19T06:09:43.598Z,24.84
2022-08-19T06:12:31.743Z,25.01
2022-08-19T06:15:02.486Z,25.21
2022-08-19T06:17:36.281Z,25.34
2022-08-19T06:20:08.368Z,25.41
2022-08-19T06:22:41.905Z,25.61
2022-08-19T06:25:13.378Z,25.91
2022-08-19T06:28:11.508Z,26.13
2022-08-19T06:30:36.426Z,26.27
2022-08-19T06:33:10.843Z,26.45
2022-08-19T06:38:36.318Z,26.54
2022-08-19T06:41:09.343Z,26.70
2022-08-19T06:43:42.254Z,27.01
2022-08-19T06:46:16.686Z,27.18
2022-08-19T06:48:50.531Z,27.39
2022-08-19T06:51:22.778Z,27.57
2022-08-19T06:53:55.671Z,27.65
2022-08-19T06:56:32.228Z,27.76
2022-08-19T06:59:03.788Z,28.16
2022-08-19T07:01:41.755Z,28.23
2022-08-19T07:04:27.455Z,28.31
2022-08-19T07:07:19.557Z,28.64
2022-08-19T07:10:00.886Z,28.93
2022-08-19T07:12:38.168Z,29.05
2022-08-19T07:15:12.469Z,29.31
2022-08-19T07:17:44.991Z,29.20
2022-08-19T07:20:21.288Z,29.54
2022-08-19T07:22:52.416Z,29.66
2022-08-19T07:25:32.174Z,30.03
2022-08-19T07:28:04.831Z,30.02
2022-08-19T07:30:38.295Z,29.82
2022-08-19T07:33:09.892Z,30.29
2022-08-19T07:35:44.941Z,30.30
2022-08-19T07:38:15.978Z,30.34
2022-08-19T07:40:47.242Z,30.20
2022-08-19T07:43:19.422Z,30.30
2022-08-19T07:45:51.495Z,30.43
2022-08-19T07:48:26.098Z,30.24
2022-08-19T07:51:03.481Z,30.36
2022-08-19T07:53:39.678Z,30.45
2022-08-19T07:56:11.367Z,30.42
2022-08-19T07:58:45.694Z,30.78
2022-08-19T08:01:20.444Z,31.09
2022-08-19T08:04:05.682Z,31.10
2022-08-19T08:06:53.867Z,31.35
2022-08-19T08:09:27.000Z,31.48
2022-08-19T08:12:05.097Z,31.49
2022-08-19T08:14:44.130Z,31.79
2022-08-19T08:17:16.353Z,31.57
2022-08-19T08:20:04.125Z,31.87
2022-08-19T08:22:52.863Z,32.14
2022-08-19T08:25:32.484Z,32.45
2022-08-19T08:28:03.198Z,32.69
2022-08-19T08:30:36.990Z,32.64
2022-08-19T08:33:08.582Z,32.81
2022-08-19T08:35:40.107Z,32.79
2022-08-19T08:38:14.353Z,32.81
2022-08-19T08:40:49.798Z,32.68
2022-08-19T08:43:32.423Z,32.92
2022-08-19T08:46:07.762Z,33.01
2022-08-19T08:48:52.782Z,33.30
2022-08-19T08:51:30.881Z,33.40
2022-08-19T08:54:11.660Z,33.32
2022-08-19T08:56:42.700Z,33.75
2022-08-19T08:59:23.040Z,33.38
2022-08-19T09:01:53.210Z,33.59
2022-08-19T09:04:24.802Z,33.75
2022-08-19T09:07:18.255Z,33.66
2022-08-19T09:10:11.208Z,33.68
2022-08-19T09:12:51.155Z,34.02
2022-08-19T09:15:36.632Z,34.02
2022-08-19T09:18:08.458Z,34.48
2022-08-19T09:20:50.649Z,34.45
2022-08-19T09:23:26.800Z,34.46
2022-08-19T09:26:01.317Z,34.29
2022-08-19T09:28:34.075Z,34.40
2022-08-19T09:31:04.093Z,34.37
2022-08-19T09:33:35.070Z,34.58
2022-08-19T09:36:31.172Z,34.44
2022-08-19T09:39:16.028Z,34.49
2022-08-19T09:41:51.060Z,34.74
2022-08-19T09:44:23.497Z,34.73
2022-08-19T09:46:54.244Z,34.73
2022-08-19T09:49:25.318Z,34.96
2022-08-19T09:51:57.360Z,35.16
2022-08-19T09:54:32.451Z,35.18
2022-08-19T09:57:10.900Z,35.39
2022-08-19T09:59:49.039Z,35.48
2022-08-19T10:02:22.050Z,35.58
2022-08-19T10:05:05.847Z,35.91
2022-08-19T10:07:36.775Z,35.95
2022-08-19T10:10:07.894Z,36.09
2022-08-19T10:12:43.258Z,35.83
2022-08-19T10:15:29.206Z,35.72
2022-08-19T10:18:00.917Z,35.95
2022-08-19T10:20:31.363Z,35.84
2022-08-19T10:23:06.549Z,35.98
2022-08-19T10:25:38.667Z,36.25
2022-08-19T10:28:19.173Z,36.35
2022-08-19T10:30:56.861Z,35.94
2022-08-19T10:33:38.875Z,36.18
2022-08-19T10:36:24.090Z,36.39
2022-08-19T10:38:58.420Z,36.71
2022-08-19T10:41:31.319Z,36.69
2022-08-19T10:44:11.571Z,36.59
2022-08-19T10:46:48.727Z,36.66
2022-08-19T10:49:24.019Z,36.60
2022-08-19T10:52:10.209Z,36.76
2022-08-19T10:54:54.616Z,37.16
2022-08-19T10:57:45.996Z,36.99
2022-08-19T11:00:27.246Z,37.03
2022-08-19T11:02:58.327Z,37.22
2022-08-19T11:05:29.659Z,37.23
2022-08-19T11:08:22.578Z,37.19
2022-08-19T11:11:01.690Z,37.30
2022-08-19T11:13:33.539Z,37.11
2022-08-19T11:16:09.276Z,37.16
2022-08-19T11:18:43.884Z,37.05
2022-08-19T11:21:21.286Z,37.19
2022-08-19T11:23:55.416Z,37.61
2022-08-19T11:26:28.317Z,37.78
2022-08-19T11:29:00.747Z,37.73
2022-08-19T11:31:36.493Z,37.90
2022-08-19T11:34:09.510Z,37.94
2022-08-19T11:36:43.649Z,37.48
2022-08-19T11:39:16.575Z,37.27
2022-08-19T11:41:48.032Z,36.55
2022-08-19T11:44:18.455Z,36.54
2022-08-19T11:46:56.067Z,36.64
2022-08-19T11:49:27.491Z,36.57
2022-08-19T11:51:59.459Z,36.81
2022-08-19T11:54:29.708Z,36.89
2022-08-19T11:57:02.410Z,36.67
2022-08-19T11:59:33.484Z,36.58
2022-08-19T12:02:06.326Z,36.83
2022-08-19T12:04:38.914Z,36.84
2022-08-19T12:07:09.075Z,36.79
2022-08-19T12:09:42.862Z,37.40
2022-08-19T12:12:14.425Z,37.12
2022-08-19T12:14:47.614Z,36.43
2022-08-19T12:17:23.034Z,36.31
2022-08-19T12:19:55.818Z,36.20
2022-08-19T12:22:26.811Z,36.01
2022-08-19T12:24:57.685Z,35.94
2022-08-19T12:27:40.405Z,35.88
2022-08-19T12:30:17.164Z,35.69
2022-08-19T12:32:53.293Z,35.45
2022-08-19T12:35:23.874Z,35.42
2022-08-19T12:37:59.628Z,34.78
2022-08-19T12:40:32.670Z,34.44
2022-08-19T12:43:03.332Z,34.17
2022-08-19T12:45:39.745Z,33.87
2022-08-19T12:48:33.401Z,34.05
2022-08-19T12:51:03.928Z,34.18
2022-08-19T12:53:34.596Z,34.05
2022-08-19T12:56:11.507Z,33.76
2022-08-19T12:58:49.047Z,33.99
2022-08-19T13:01:23.853Z,34.16
2022-08-19T13:04:01.468Z,34.13
2022-08-19T13:06:32.483Z,33.84
2022-08-19T13:09:02.645Z,33.92
2022-08-19T13:11:34.260Z,34.09
2022-08-19T13:14:09.946Z,34.10
2022-08-19T13:16:41.495Z,33.57
2022-08-19T13:19:16.566Z,33.53
2022-08-19T13:21:48.989Z,33.44
2022-08-19T13:24:27.718Z,33.33
2022-08-19T13:27:06.114Z,33.16
2022-08-19T13:29:48.695Z,32.79
2022-08-19T13:32:31.258Z,32.55
2022-08-19T13:35:05.067Z,32.52
2022-08-19T13:37:45.909Z,31.83
2022-08-19T13:40:22.158Z,32.04
2022-08-19T13:42:57.405Z,32.23
2022-08-19T13:45:30.846Z,31.96
2022-08-19T13:48:02.003Z,31.77
2022-08-19T13:50:38.270Z,31.66
2022-08-19T13:53:09.348Z,31.51
2022-08-19T13:55:41.508Z,31.19
2022-08-19T13:58:13.653Z,31.11
2022-08-19T14:00:51.486Z,31.53
2022-08-19T14:03:21.789Z,31.85
2022-08-19T14:06:12.297Z,32.13
2022-08-19T14:08:46.200Z,32.46
2022-08-19T14:11:17.372Z,32.46
2022-08-19T14:13:47.536Z,32.58
2022-08-19T14:16:18.407Z,32.50
2022-08-19T14:18:49.496Z,32.75
2022-08-19T14:21:27.994Z,32.50
2022-08-19T14:23:59.919Z,32.49
2022-08-19T14:26:30.286Z,32.12
2022-08-19T14:29:04.943Z,31.88
2022-08-19T14:31:35.091Z,31.87
2022-08-19T14:34:06.395Z,31.79
2022-08-19T14:36:47.105Z,31.71
2022-08-19T14:39:20.403Z,31.50
2022-08-19T14:41:50.656Z,31.62
2022-08-19T14:44:21.520Z,31.41
2022-08-19T14:46:51.911Z,31.37
2022-08-19T14:49:34.778Z,31.35
2022-08-19T14:52:16.406Z,31.13
2022-08-19T14:54:49.571Z,31.14
2022-08-19T14:57:21.208Z,31.03
2022-08-19T14:59:51.380Z,30.98
2022-08-19T15:02:35.014Z,30.77
2022-08-19T15:05:05.694Z,30.60
2022-08-19T15:07:39.076Z,30.40
2022-08-19T15:10:19.777Z,30.21
2022-08-19T15:12:51.817Z,30.02
2022-08-19T15:15:30.951Z,29.86
2022-08-19T15:18:05.035Z,29.67
2022-08-19T15:20:35.484Z,29.53
2022-08-19T15:23:11.801Z,29.31
2022-08-19T15:25:42.579Z,29.26
2022-08-19T15:28:13.674Z,29.30
2022-08-19T15:30:45.168Z,29.16
2022-08-19T15:33:18.515Z,28.98
2022-08-19T15:35:51.741Z,28.98
2022-08-19T15:38:27.386Z,28.89
2022-08-19T15:41:19.801Z,28.74
2022-08-19T15:43:52.527Z,28.76
2022-08-19T15:46:25.134Z,28.78
2022-08-19T15:48:59.706Z,28.61
2022-08-19T15:51:32.589Z,28.60
2022-08-19T15:54:09.977Z,28.31
2022-08-19T15:56:58.342Z,28.31
2022-08-19T15:59:43.702Z,28.34
2022-08-19T16:02:32.997Z,28.22
2022-08-19T16:05:18.761Z,28.14
2022-08-19T16:07:51.502Z,28.16
2022-08-19T16:10:27.349Z,28.11
2022-08-19T16:12:59.274Z,28.04
2022-08-19T16:15:33.966Z,27.99
2022-08-19T16:18:05.315Z,28.07
2022-08-19T16:20:36.618Z,28.02
2022-08-19T16:23:07.368Z,27.79
2022-08-19T16:25:40.184Z,27.45
2022-08-19T16:28:12.302Z,26.98
2022-08-19T16:30:48.663Z,26.90
2022-08-19T16:33:23.235Z,26.91
2022-08-19T16:36:00.154Z,26.75
2022-08-19T16:38:38.111Z,26.77
2022-08-19T16:41:11.838Z,26.75
2022-08-19T16:43:46.167Z,26.51
2022-08-19T16:46:19.568Z,26.37
2022-08-19T16:48:55.403Z,26.32
2022-08-19T16:51:28.394Z,26.24
2022-08-19T16:53:58.994Z,26.29
2022-08-19T16:56:34.620Z,26.18
2022-08-19T16:59:04.966Z,25.91
2022-08-19T17:01:35.417Z,25.96
2022-08-19T17:04:05.879Z,25.67
2022-08-19T17:06:38.317Z,25.43
2022-08-19T17:09:10.473Z,25.32
2022-08-19T17:11:43.247Z,25.30
2022-08-19T17:14:13.779Z,25.39
2022-08-19T17:16:45.355Z,25.38
2022-08-19T17:19:15.544Z,25.34
2022-08-19T17:21:46.681Z,25.26
2022-08-19T17:24:17.458Z,25.17
2022-08-19T17:26:52.372Z,24.98
2022-08-19T17:29:23.477Z,25.04
2022-08-19T17:31:56.128Z,24.95
2022-08-19T17:34:26.562Z,25.00
2022-08-19T17:36:59.586Z,24.99
2022-08-19T17:39:45.094Z,25.12
2022-08-19T17:42:17.999Z,25.34
2022-08-19T17:44:50.851Z,25.18
2022-08-19T17:47:21.311Z,24.34
2022-08-19T17:49:52.126Z,22.63
2022-08-19T17:52:23.767Z,22.19
2022-08-19T17:54:54.837Z,21.58
2022-08-19T17:57:29.016Z,21.67
2022-08-19T17:59:59.297Z,21.34
2022-08-19T18:02:29.961Z,21.49
2022-08-19T18:05:07.923Z,21.26
2022-08-19T18:07:39.185Z,21.11
2022-08-19T18:10:18.001Z,21.11
2022-08-19T18:12:50.625Z,21.07
2022-08-19T18:15:23.057Z,21.00
2022-08-19T18:17:56.203Z,21.20
2022-08-19T18:20:26.587Z,21.08
2022-08-19T18:22:59.463Z,21.24
2022-08-19T18:25:50.532Z,21.16
2022-08-19T18:28:24.633Z,21.02
2022-08-19T18:30:58.628Z,20.99
2022-08-19T18:33:30.988Z,21.20
2022-08-19T18:36:04.345Z,21.18
2022-08-19T18:38:54.738Z,21.09
2022-08-19T18:41:41.457Z,21.07
2022-08-19T18:44:29.082Z,21.01
2022-08-19T18:47:12.377Z,21.09
2022-08-19T18:49:46.290Z,21.14
2022-08-19T18:52:16.504Z,21.02
2022-08-19T18:54:48.898Z,21.15
2022-08-19T18:57:24.965Z,21.16
2022-08-19T19:00:02.968Z,21.19
2022-08-19T19:02:41.431Z,21.15
2022-08-19T19:05:13.950Z,21.14
2022-08-19T19:07:44.881Z,21.16
2022-08-19T19:10:15.030Z,21.29
2022-08-19T19:12:48.300Z,21.26
2022-08-19T19:15:26.538Z,21.30
2022-08-19T19:17:57.008Z,21.23
2022-08-19T19:20:35.289Z,21.31
2022-08-19T19:23:10.118Z,21.54
2022-08-19T19:25:50.355Z,21.65
2022-08-19T19:28:29.009Z,21.76
2022-08-19T19:31:02.155Z,21.76
2022-08-19T19:33:32.374Z,21.59
2022-08-19T19:36:05.851Z,21.46
2022-08-19T19:38:37.773Z,21.30
2022-08-19T19:41:08.902Z,21.21
2022-08-19T19:43:41.008Z,21.23
2022-08-19T19:46:15.805Z,21.27
2022-08-19T19:48:46.436Z,21.24
2022-08-19T19:51:21.039Z,21.22
2022-08-19T19:53:53.898Z,21.19
2022-08-19T19:56:25.300Z,21.16
2022-08-19T19:58:55.806Z,21.22
2022-08-19T20:01:31.513Z,21.16
2022-08-19T20:04:12.422Z,21.19
2022-08-19T20:06:43.317Z,21.20
2022-08-19T20:09:18.907Z,21.26
2022-08-19T20:11:54.766Z,21.24
2022-08-19T20:14:29.226Z,21.21
2022-08-19T20:17:07.337Z,21.21
2022-08-19T20:19:37.866Z,21.09
2022-08-19T20:22:10.586Z,21.26
2022-08-19T20:24:42.792Z,21.25
2022-08-19T20:27:12.972Z,21.28
2022-08-19T20:29:44.582Z,21.25
2022-08-19T20:32:22.610Z,21.14
2022-08-19T20:34:52.816Z,21.13
2022-08-19T20:37:22.949Z,21.20
2022-08-19T20:40:03.306Z,21.22
2022-08-19T20:42:35.635Z,21.19
2022-08-19T20:45:09.913Z,21.19
2022-08-19T20:48:05.219Z,21.22
2022-08-19T20:50:37.984Z,21.14
2022-08-19T20:53:14.224Z,21.00
2022-08-19T20:55:47.516Z,20.91
2022-08-19T20:58:19.021Z,20.96
2022-08-19T21:00:50.231Z,21.01
2022-08-19T21:03:27.902Z,20.97
2022-08-19T21:05:58.987Z,21.11
2022-08-19T21:08:30.056Z,21.02
2022-08-19T21:11:00.561Z,21.03
2022-08-19T21:13:33.117Z,21.11
2022-08-19T21:16:05.515Z,21.02
2022-08-19T21:18:43.177Z,21.08
2022-08-19T21:21:13.649Z,21.04
2022-08-19T21:23:45.642Z,21.02
2022-08-19T21:26:16.551Z,21.01
2022-08-19T21:28:48.312Z,20.98
2022-08-19T21:31:19.185Z,20.97
2022-08-19T21:33:53.111Z,20.98
2022-08-19T21:36:25.667Z,20.99
2022-08-19T21:39:09.045Z,21.03
2022-08-19T21:41:43.463Z,21.06
2022-08-19T21:44:14.561Z,21.05
2022-08-19T21:46:45.715Z,21.03
2022-08-19T21:49:24.237Z,20.99
2022-08-19T21:51:55.399Z,20.94
2022-08-19T21:54:27.317Z,20.89
2022-08-19T21:57:10.535Z,20.90
2022-08-19T21:59:44.203Z,20.89
2022-08-19T22:02:20.478Z,20.83
2022-08-19T22:04:55.697Z,20.85
2022-08-19T22:07:26.629Z,20.88
2022-08-19T22:09:57.588Z,20.92
2022-08-19T22:12:31.627Z,20.83
2022-08-19T22:15:05.078Z,20.75
2022-08-19T22:17:35.234Z,20.71
2022-08-19T22:20:10.877Z,20.74
2022-08-19T22:22:48.877Z,20.81
2022-08-19T22:25:31.704Z,20.52
2022-08-19T22:28:02.700Z,20.49
2022-08-19T22:30:35.879Z,20.52
2022-08-19T22:33:11.763Z,20.54
2022-08-19T22:35:46.522Z,20.51
2022-08-19T22:38:24.382Z,20.63
2022-08-19T22:40:56.728Z,20.56
2022-08-19T22:43:31.765Z,20.53
2022-08-19T22:46:05.854Z,20.58
2022-08-19T22:48:47.200Z,20.60
2022-08-19T22:51:32.996Z,20.66
2022-08-19T22:54:04.053Z,20.60
2022-08-19T22:56:34.975Z,20.66
2022-08-19T22:59:08.735Z,20.67
2022-08-19T23:01:41.917Z,20.66
2022-08-19T23:04:12.364Z,20.67
2022-08-19T23:06:48.388Z,20.66
2022-08-19T23:09:18.715Z,20.62
2022-08-19T23:11:55.184Z,20.70
2022-08-19T23:14:28.219Z,20.71
2022-08-19T23:16:59.457Z,20.67
2022-08-19T23:19:29.930Z,20.70
2022-08-19T23:22:07.162Z,20.67
2022-08-19T23:24:37.623Z,20.63
2022-08-19T23:27:21.221Z,20.57
2022-08-19T23:30:05.981Z,20.57
2022-08-19T23:32:38.107Z,20.56
2022-08-19T23:35:09.161Z,20.61
2022-08-19T23:37:42.204Z,20.62
2022-08-19T23:40:15.237Z,20.66
2022-08-19T23:42:47.605Z,20.70
2022-08-19T23:45:25.549Z,20.70
2022-08-19T23:47:57.989Z,20.70
2022-08-19T23:50:29.973Z,20.67
2022-08-19T23:53:13.284Z,20.72
2022-08-19T23:55:45.395Z,20.77
2022-08-19T23:58:17.876Z,20.77
